createdAt,value
2022-10-05T00:02:03.355Z,12.95
2022-10-05T00:04:30.429Z,13.08
2022-10-05T00:07:01.410Z,12.72
2022-10-05T00:09:28.721Z,12.72
2022-10-05T00:11:56.342Z,12.67
2022-10-05T00:14:33.469Z,12.63
2022-10-05T00:17:01.224Z,12.98
2022-10-05T00:19:32.703Z,12.90
2022-10-05T00:21:59.907Z,12.72
2022-10-05T00:24:26.954Z,12.85
2022-10-05T00:26:57.785Z,12.84
2022-10-05T00:29:25.185Z,12.81
2022-10-05T00:31:53.010Z,12.88
2022-10-05T00:34:19.830Z,13.07
2022-10-05T00:36:46.852Z,12.88
2022-10-05T00:39:14.070Z,13.12
2022-10-05T00:41:59.639Z,12.91
2022-10-05T00:44:33.139Z,12.97
2022-10-05T00:47:05.013Z,12.71
2022-10-05T00:49:44.445Z,13.00
2022-10-05T00:52:11.187Z,12.89
2022-10-05T00:54:45.365Z,12.87
2022-10-05T00:57:17.987Z,12.78
2022-10-05T00:59:51.795Z,12.65
2022-10-05T01:02:27.575Z,12.73
2022-10-05T01:04:57.760Z,12.78
2022-10-05T01:07:30.651Z,12.70
2022-10-05T01:10:16.473Z,12.75
2022-10-05T01:12:50.900Z,12.46
2022-10-05T01:15:21.098Z,12.63
2022-10-05T01:18:06.583Z,12.30
2022-10-05T01:20:44.722Z,12.39
2022-10-05T01:23:30.469Z,12.48
2022-10-05T01:26:06.329Z,12.38
2022-10-05T01:28:38.033Z,12.37
2022-10-05T01:31:07.884Z,12.24
2022-10-05T01:33:55.587Z,12.19
2022-10-05T01:36:31.142Z,12.31
2022-10-05T01:39:13.328Z,12.37
2022-10-05T01:42:06.856Z,12.54
2022-10-05T01:44:37.163Z,12.41
2022-10-05T01:47:08.050Z,12.43
2022-10-05T01:49:41.277Z,12.37
2022-10-05T01:52:21.193Z,12.32
2022-10-05T01:54:55.307Z,12.38
2022-10-05T01:57:26.745Z,12.32
2022-10-05T02:00:05.612Z,12.27
2022-10-05T02:03:06.697Z,12.34
2022-10-05T02:05:54.283Z,12.46
2022-10-05T02:08:38.309Z,12.53
2022-10-05T02:11:10.413Z,12.40
2022-10-05T02:13:44.176Z,12.18
2022-10-05T02:16:14.570Z,12.24
2022-10-05T02:18:51.265Z,12.29
2022-10-05T02:21:19.139Z,12.27
2022-10-05T02:23:45.992Z,12.26
2022-10-05T02:26:12.740Z,11.92
2022-10-05T02:28:42.072Z,11.33
2022-10-05T02:31:08.838Z,11.90
2022-10-05T02:33:35.795Z,12.00
2022-10-05T02:36:18.569Z,11.97
2022-10-05T02:39:04.933Z,12.15
2022-10-05T02:41:31.918Z,12.07
2022-10-05T02:44:17.548Z,12.34
2022-10-05T02:47:03.491Z,12.27
2022-10-05T02:49:48.087Z,12.24
2022-10-05T02:52:18.642Z,12.28
2022-10-05T02:55:04.147Z,12.36
2022-10-05T02:57:33.760Z,12.27
2022-10-05T03:00:04.227Z,12.29
2022-10-05T03:02:37.291Z,12.24
2022-10-05T03:05:22.848Z,12.23
2022-10-05T03:07:58.552Z,12.26
2022-10-05T03:10:27.224Z,12.37
2022-10-05T03:12:58.009Z,12.23
2022-10-05T03:15:31.251Z,12.06
2022-10-05T03:18:20.604Z,12.07
2022-10-05T03:20:49.886Z,11.95
2022-10-05T03:23:41.797Z,11.94
2022-10-05T03:26:27.408Z,12.01
2022-10-05T03:29:08.959Z,12.05
2022-10-05T03:31:38.966Z,11.81
2022-10-05T03:34:06.937Z,12.22
2022-10-05T03:36:39.204Z,11.90
2022-10-05T03:39:25.386Z,11.92
2022-10-05T03:42:05.298Z,12.00
2022-10-05T03:44:32.302Z,11.78
2022-10-05T03:47:02.365Z,11.73
2022-10-05T03:49:32.306Z,11.82
2022-10-05T03:52:04.583Z,11.90
2022-10-05T03:54:54.920Z,11.80
2022-10-05T03:57:23.638Z,11.55
2022-10-05T04:00:05.289Z,11.72
2022-10-05T04:02:42.968Z,11.75
2022-10-05T04:05:10.574Z,11.59
2022-10-05T04:07:42.737Z,11.72
2022-10-05T04:10:14.882Z,11.44
2022-10-05T04:12:43.169Z,11.40
2022-10-05T04:15:19.124Z,11.66
2022-10-05T04:17:48.987Z,11.51
2022-10-05T04:20:18.126Z,11.45
2022-10-05T04:22:48.069Z,11.10
2022-10-05T04:25:18.575Z,11.17
2022-10-05T04:27:48.050Z,11.15
2022-10-05T04:30:16.813Z,11.26
2022-10-05T04:32:44.871Z,11.32
2022-10-05T04:35:31.200Z,11.39
2022-10-05T04:38:17.494Z,11.41
2022-10-05T04:41:01.027Z,11.13
2022-10-05T04:43:48.323Z,11.04
2022-10-05T04:46:33.511Z,10.92
2022-10-05T04:49:03.534Z,11.22
2022-10-05T04:51:51.395Z,10.98
2022-10-05T04:54:45.366Z,11.21
2022-10-05T04:57:14.531Z,11.11
2022-10-05T04:59:45.724Z,10.86
2022-10-05T05:02:12.411Z,11.00
2022-10-05T05:04:39.183Z,11.10
2022-10-05T05:07:24.905Z,11.12
2022-10-05T05:09:58.932Z,11.18
2022-10-05T05:12:25.995Z,11.09
2022-10-05T05:14:59.839Z,11.32
2022-10-05T05:17:32.927Z,10.99
2022-10-05T05:19:59.765Z,11.05
2022-10-05T05:22:35.680Z,11.19
2022-10-05T05:25:17.811Z,11.04
2022-10-05T05:28:04.259Z,10.79
2022-10-05T05:30:36.058Z,11.07
2022-10-05T05:33:06.023Z,11.11
2022-10-05T05:35:42.089Z,11.30
2022-10-05T05:38:29.049Z,11.49
2022-10-05T05:40:56.012Z,11.50
2022-10-05T05:43:38.527Z,11.41
2022-10-05T05:46:06.514Z,11.24
2022-10-05T05:48:38.514Z,11.46
2022-10-05T05:51:18.174Z,11.61
2022-10-05T05:53:46.341Z,11.53
2022-10-05T05:56:13.932Z,11.66
2022-10-05T05:58:44.009Z,11.87
2022-10-05T06:01:31.749Z,11.66
2022-10-05T06:04:10.056Z,11.77
2022-10-05T06:06:38.473Z,11.76
2022-10-05T06:09:17.144Z,12.00
2022-10-05T06:11:52.119Z,11.73
2022-10-05T06:14:23.160Z,12.02
2022-10-05T06:16:51.348Z,12.18
2022-10-05T06:19:18.906Z,12.22
2022-10-05T06:21:52.713Z,12.20
2022-10-05T06:24:29.149Z,12.23
2022-10-05T06:27:15.207Z,12.38
2022-10-05T06:29:58.145Z,12.51
2022-10-05T06:32:55.026Z,12.30
2022-10-05T06:35:31.084Z,12.63
2022-10-05T06:38:01.356Z,12.85
2022-10-05T06:40:47.132Z,12.87
2022-10-05T06:43:17.533Z,13.10
2022-10-05T06:46:12.977Z,13.18
2022-10-05T06:48:49.281Z,13.28
2022-10-05T06:51:20.025Z,13.52
2022-10-05T06:53:48.983Z,13.44
2022-10-05T06:56:17.623Z,13.75
2022-10-05T06:58:45.766Z,14.26
2022-10-05T07:01:32.439Z,14.75
2022-10-05T07:04:18.096Z,15.20
2022-10-05T07:06:45.444Z,15.66
2022-10-05T07:09:44.888Z,16.11
2022-10-05T07:12:26.159Z,16.59
2022-10-05T07:14:55.914Z,17.12
2022-10-05T07:17:29.390Z,17.60
2022-10-05T07:19:58.005Z,17.68
2022-10-05T07:22:43.897Z,17.58
2022-10-05T07:25:14.807Z,17.81
2022-10-05T07:27:51.102Z,18.01
2022-10-05T07:30:18.808Z,18.12
2022-10-05T07:32:46.147Z,18.35
2022-10-05T07:35:37.609Z,18.48
2022-10-05T07:38:07.933Z,18.85
2022-10-05T07:40:50.617Z,19.10
2022-10-05T07:44:10.161Z,19.16
2022-10-05T07:46:40.389Z,19.26
2022-10-05T07:49:15.671Z,19.43
2022-10-05T07:51:45.408Z,19.61
2022-10-05T07:54:40.500Z,19.41
2022-10-05T07:57:26.111Z,19.29
2022-10-05T07:59:56.969Z,19.93
2022-10-05T08:02:24.360Z,19.77
2022-10-05T08:05:11.736Z,20.20
2022-10-05T08:07:38.402Z,20.42
2022-10-05T08:10:23.757Z,20.47
2022-10-05T08:12:53.543Z,20.24
2022-10-05T08:15:21.867Z,20.11
2022-10-05T08:17:49.699Z,20.52
2022-10-05T08:20:38.862Z,20.69
2022-10-05T08:23:24.488Z,20.73
2022-10-05T08:26:09.759Z,20.73
2022-10-05T08:28:41.714Z,21.12
2022-10-05T08:31:08.423Z,21.10
2022-10-05T08:33:36.655Z,21.13
2022-10-05T08:36:05.784Z,21.26
2022-10-05T08:38:32.915Z,20.64
2022-10-05T08:40:59.583Z,21.17
2022-10-05T08:43:45.657Z,20.65
2022-10-05T08:46:31.220Z,21.24
2022-10-05T08:49:09.879Z,20.77
2022-10-05T08:51:42.764Z,20.71
2022-10-05T08:54:09.673Z,20.71
2022-10-05T08:56:51.387Z,20.58
2022-10-05T08:59:24.518Z,20.24
2022-10-05T09:02:00.462Z,20.49
2022-10-05T09:04:39.639Z,20.22
2022-10-05T09:07:25.462Z,19.97
2022-10-05T09:10:11.184Z,20.20
2022-10-05T09:12:50.149Z,20.29
2022-10-05T09:15:26.410Z,20.67
2022-10-05T09:18:02.626Z,20.38
2022-10-05T09:20:32.941Z,20.61
2022-10-05T09:22:59.666Z,21.05
2022-10-05T09:25:35.586Z,21.54
2022-10-05T09:28:05.282Z,21.19
2022-10-05T09:30:47.315Z,21.24
2022-10-05T09:33:27.062Z,21.31
2022-10-05T09:35:58.240Z,21.11
2022-10-05T09:38:47.560Z,21.29
2022-10-05T09:41:33.109Z,21.80
2022-10-05T09:44:19.067Z,21.58
2022-10-05T09:46:48.391Z,21.31
2022-10-05T09:49:34.632Z,21.79
2022-10-05T09:52:01.463Z,21.66
2022-10-05T09:54:37.587Z,21.46
2022-10-05T09:57:22.967Z,21.57
2022-10-05T10:00:09.423Z,21.55
2022-10-05T10:02:47.965Z,21.23
2022-10-05T10:05:27.475Z,20.83
2022-10-05T10:07:59.025Z,20.93
2022-10-05T10:10:32.002Z,20.72
2022-10-05T10:13:01.389Z,20.44
2022-10-05T10:15:35.061Z,20.83
2022-10-05T10:18:10.958Z,20.52
2022-10-05T10:20:37.875Z,20.76
2022-10-05T10:23:20.872Z,21.35
2022-10-05T10:25:53.961Z,21.32
2022-10-05T10:28:35.801Z,21.78
2022-10-05T10:31:08.915Z,21.81
2022-10-05T10:33:50.594Z,21.30
2022-10-05T10:36:26.617Z,21.14
2022-10-05T10:38:54.727Z,21.37
2022-10-05T10:41:40.672Z,21.03
2022-10-05T10:44:13.196Z,21.01
2022-10-05T10:46:58.858Z,20.74
2022-10-05T10:49:51.297Z,20.82
2022-10-05T10:52:19.449Z,20.75
2022-10-05T10:55:01.566Z,21.01
2022-10-05T10:57:37.549Z,21.22
2022-10-05T11:00:11.224Z,21.53
2022-10-05T11:02:57.182Z,20.98
2022-10-05T11:05:36.383Z,20.43
2022-10-05T11:08:21.868Z,20.98
2022-10-05T11:10:54.358Z,20.78
2022-10-05T11:13:24.913Z,20.77
2022-10-05T11:15:58.757Z,20.79
2022-10-05T11:18:45.342Z,20.76
2022-10-05T11:21:26.153Z,21.15
2022-10-05T11:24:12.556Z,21.34
2022-10-05T11:26:46.412Z,21.32
2022-10-05T11:29:32.606Z,21.15
2022-10-05T11:32:17.962Z,21.43
2022-10-05T11:34:50.767Z,21.58
2022-10-05T11:37:26.157Z,21.70
2022-10-05T11:40:11.948Z,21.32
2022-10-05T11:42:53.735Z,21.27
2022-10-05T11:45:25.147Z,21.46
2022-10-05T11:47:58.280Z,21.56
2022-10-05T11:50:32.522Z,21.36
2022-10-05T11:53:05.791Z,21.26
2022-10-05T11:55:37.593Z,21.37
2022-10-05T11:58:12.979Z,21.46
2022-10-05T12:00:40.619Z,21.13
2022-10-05T12:03:17.202Z,21.93
2022-10-05T12:05:50.182Z,22.18
2022-10-05T12:08:36.120Z,22.01
2022-10-05T12:13:38.963Z,21.82
2022-10-05T12:16:23.659Z,22.00
2022-10-05T12:18:51.058Z,21.80
2022-10-05T12:21:22.816Z,22.01
2022-10-05T12:23:49.501Z,22.06
2022-10-05T12:26:16.960Z,21.61
2022-10-05T12:29:13.177Z,21.24
2022-10-05T12:31:49.365Z,21.89
2022-10-05T12:34:42.535Z,21.67
2022-10-05T12:37:36.313Z,21.90
2022-10-05T12:40:06.413Z,21.99
2022-10-05T12:42:42.164Z,21.59
2022-10-05T12:45:20.895Z,21.57
2022-10-05T12:47:55.551Z,21.51
2022-10-05T12:50:22.296Z,21.54
2022-10-05T12:52:59.111Z,20.98
2022-10-05T12:55:42.656Z,21.65
2022-10-05T12:58:21.501Z,20.98
2022-10-05T13:00:52.088Z,21.58
2022-10-05T13:03:26.538Z,21.65
2022-10-05T13:06:00.311Z,21.85
2022-10-05T13:08:39.095Z,21.85
2022-10-05T13:11:15.037Z,21.92
2022-10-05T13:14:03.294Z,21.63
2022-10-05T13:16:40.350Z,21.28
2022-10-05T13:19:26.995Z,21.69
2022-10-05T13:22:12.763Z,21.53
2022-10-05T13:24:53.328Z,21.95
2022-10-05T13:27:36.466Z,21.64
2022-10-05T13:30:03.979Z,21.26
2022-10-05T13:32:34.800Z,20.70
2022-10-05T13:35:01.790Z,20.72
2022-10-05T13:37:32.283Z,21.02
2022-10-05T13:40:12.788Z,21.53
2022-10-05T13:42:48.464Z,21.46
2022-10-05T13:45:27.491Z,21.39
2022-10-05T13:47:55.229Z,21.37
2022-10-05T13:50:24.019Z,21.17
2022-10-05T13:53:00.897Z,21.60
2022-10-05T13:55:48.042Z,21.42
2022-10-05T13:58:17.742Z,21.62
2022-10-05T14:00:53.362Z,21.44
2022-10-05T14:03:28.437Z,21.48
2022-10-05T14:06:00.012Z,21.53
2022-10-05T14:08:32.849Z,21.68
2022-10-05T14:10:59.599Z,21.53
2022-10-05T14:13:27.784Z,21.46
2022-10-05T14:16:04.657Z,21.81
2022-10-05T14:18:32.930Z,21.71
2022-10-05T14:21:09.102Z,21.63
2022-10-05T14:23:35.871Z,21.62
2022-10-05T14:26:04.493Z,21.37
2022-10-05T14:28:32.952Z,21.68
2022-10-05T14:30:59.635Z,21.51
2022-10-05T14:33:29.241Z,21.43
2022-10-05T14:35:56.951Z,21.69
2022-10-05T14:38:29.473Z,21.66
2022-10-05T14:41:12.413Z,21.58
2022-10-05T14:43:39.363Z,21.44
2022-10-05T14:46:23.168Z,21.72
2022-10-05T14:49:12.669Z,21.75
2022-10-05T14:51:39.681Z,21.81
2022-10-05T14:54:25.237Z,21.69
2022-10-05T14:57:13.956Z,21.61
2022-10-05T14:59:47.364Z,21.48
2022-10-05T15:02:31.591Z,21.34
2022-10-05T15:05:17.028Z,21.49
2022-10-05T15:07:44.618Z,21.61
2022-10-05T15:10:14.359Z,21.51
2022-10-05T15:12:44.008Z,21.40
2022-10-05T15:15:17.072Z,21.47
2022-10-05T15:17:47.572Z,21.28
2022-10-05T15:20:25.808Z,21.30
2022-10-05T15:23:00.429Z,21.44
2022-10-05T15:25:30.606Z,21.27
2022-10-05T15:28:09.662Z,21.13
2022-10-05T15:30:37.902Z,20.92
2022-10-05T15:33:07.554Z,21.02
2022-10-05T15:35:37.312Z,21.21
2022-10-05T15:38:21.219Z,21.18
2022-10-05T15:41:06.825Z,21.14
2022-10-05T15:43:38.231Z,21.02
2022-10-05T15:46:19.094Z,20.99
2022-10-05T15:49:08.485Z,20.86
2022-10-05T15:51:53.933Z,20.76
2022-10-05T15:54:39.763Z,20.73
2022-10-05T15:57:08.765Z,20.82
2022-10-05T15:59:38.682Z,20.79
2022-10-05T16:02:07.210Z,20.75
2022-10-05T16:04:37.245Z,20.59
2022-10-05T16:07:22.562Z,20.72
2022-10-05T16:09:53.786Z,20.77
2022-10-05T16:12:24.876Z,20.56
2022-10-05T16:14:54.603Z,20.52
2022-10-05T16:17:27.185Z,20.60
2022-10-05T16:20:08.073Z,20.44
2022-10-05T16:22:59.727Z,20.46
2022-10-05T16:25:30.396Z,20.41
2022-10-05T16:27:59.524Z,20.31
2022-10-05T16:30:29.267Z,20.13
2022-10-05T16:32:56.008Z,20.07
2022-10-05T16:35:25.972Z,20.04
2022-10-05T16:38:25.431Z,20.05
2022-10-05T16:41:01.994Z,19.92
2022-10-05T16:43:32.381Z,19.81
2022-10-05T16:46:02.204Z,19.87
2022-10-05T16:48:30.705Z,19.79
2022-10-05T16:51:07.658Z,19.72
2022-10-05T16:53:42.529Z,19.56
2022-10-05T16:56:11.293Z,19.48
2022-10-05T16:58:47.631Z,19.44
2022-10-05T17:01:14.332Z,19.45
2022-10-05T17:03:45.822Z,19.26
2022-10-05T17:06:18.692Z,19.29
2022-10-05T17:08:45.705Z,19.24
2022-10-05T17:11:21.302Z,19.09
2022-10-05T17:13:55.161Z,19.00
2022-10-05T17:16:28.074Z,19.00
2022-10-05T17:19:33.077Z,18.76
2022-10-05T17:22:00.839Z,18.71
2022-10-05T17:24:42.156Z,18.49
2022-10-05T17:27:23.604Z,18.68
2022-10-05T17:29:54.291Z,18.75
2022-10-05T17:32:33.803Z,18.51
2022-10-05T17:35:01.000Z,18.51
2022-10-05T17:37:27.657Z,18.36
2022-10-05T17:39:55.198Z,18.50
2022-10-05T17:42:32.891Z,18.51
2022-10-05T17:45:14.703Z,18.48
2022-10-05T17:47:54.656Z,18.38
2022-10-05T17:51:00.812Z,18.38
2022-10-05T17:53:52.529Z,18.16
2022-10-05T17:56:22.742Z,18.16
2022-10-05T17:58:54.603Z,18.00
2022-10-05T18:01:31.700Z,18.00
2022-10-05T18:04:21.793Z,17.90
2022-10-05T18:06:52.736Z,17.97
2022-10-05T18:09:22.994Z,17.94
2022-10-05T18:12:08.999Z,17.93
2022-10-05T18:14:57.354Z,17.85
2022-10-05T18:17:45.111Z,17.85
2022-10-05T18:20:15.353Z,17.92
2022-10-05T18:22:46.655Z,17.78
2022-10-05T18:25:22.978Z,17.86
2022-10-05T18:28:00.662Z,17.79
2022-10-05T18:30:29.758Z,17.65
2022-10-05T18:32:57.082Z,17.65
2022-10-05T18:35:47.705Z,17.66
2022-10-05T18:38:33.598Z,17.47
2022-10-05T18:41:01.241Z,17.63
2022-10-05T18:43:46.494Z,17.50
2022-10-05T18:46:32.263Z,17.56
2022-10-05T18:49:02.378Z,17.57
2022-10-05T18:51:29.215Z,17.55
2022-10-05T18:54:08.195Z,17.69
2022-10-05T18:56:44.544Z,17.58
2022-10-05T18:59:27.268Z,17.27
2022-10-05T19:01:57.616Z,17.35
2022-10-05T19:04:29.014Z,17.53
2022-10-05T19:07:03.168Z,17.37
2022-10-05T19:09:51.295Z,17.39
2022-10-05T19:12:22.865Z,17.48
2022-10-05T19:14:53.924Z,17.41
2022-10-05T19:17:24.739Z,17.38
2022-10-05T19:20:12.740Z,17.42
2022-10-05T19:22:48.678Z,17.41
2022-10-05T19:25:34.956Z,17.23
2022-10-05T19:28:02.587Z,17.32
2022-10-05T19:30:37.552Z,17.34
2022-10-05T19:33:33.578Z,17.25
2022-10-05T19:36:19.260Z,17.28
2022-10-05T19:38:58.737Z,17.23
2022-10-05T19:41:27.325Z,17.05
2022-10-05T19:44:08.562Z,17.09
2022-10-05T19:46:49.818Z,16.87
2022-10-05T19:49:34.839Z,16.92
2022-10-05T19:52:02.416Z,16.91
2022-10-05T19:54:30.144Z,16.90
2022-10-05T19:56:57.873Z,16.97
2022-10-05T19:59:31.576Z,17.02
2022-10-05T20:01:58.855Z,16.91
2022-10-05T20:04:31.761Z,16.76
2022-10-05T20:06:59.613Z,16.88
2022-10-05T20:09:26.640Z,16.85
2022-10-05T20:11:53.500Z,16.81
2022-10-05T20:14:21.282Z,16.73
2022-10-05T20:17:07.024Z,16.67
2022-10-05T20:19:36.401Z,16.59
2022-10-05T20:22:22.676Z,16.48
2022-10-05T20:24:50.760Z,16.54
2022-10-05T20:27:38.088Z,16.55
2022-10-05T20:30:05.362Z,16.59
2022-10-05T20:32:33.066Z,16.63
2022-10-05T20:34:59.818Z,16.35
2022-10-05T20:37:26.525Z,16.38
2022-10-05T20:39:53.477Z,16.14
2022-10-05T20:42:23.013Z,16.38
2022-10-05T20:44:54.327Z,16.20
2022-10-05T20:47:23.806Z,16.24
2022-10-05T20:49:50.452Z,16.40
2022-10-05T20:52:18.352Z,16.22
2022-10-05T20:57:13.348Z,16.24
2022-10-05T20:59:40.141Z,16.14
2022-10-05T21:02:07.089Z,16.15
2022-10-05T21:04:42.857Z,16.10
2022-10-05T21:07:10.101Z,15.99
2022-10-05T21:09:38.554Z,15.95
2022-10-05T21:12:05.397Z,15.94
2022-10-05T21:14:34.472Z,15.96
2022-10-05T21:17:02.229Z,15.92
2022-10-05T21:19:29.594Z,15.68
2022-10-05T21:21:59.154Z,15.76
2022-10-05T21:24:26.267Z,15.58
2022-10-05T21:26:57.744Z,15.66
2022-10-05T21:29:24.783Z,15.50
2022-10-05T21:31:51.684Z,15.38
2022-10-05T21:34:18.469Z,15.55
2022-10-05T21:36:45.635Z,15.31
2022-10-05T21:39:12.400Z,15.37
2022-10-05T21:41:39.136Z,15.60
2022-10-05T21:44:06.763Z,15.58
2022-10-05T21:46:34.963Z,15.47
2022-10-05T21:49:01.823Z,15.41
2022-10-05T21:51:28.885Z,15.25
2022-10-05T21:53:56.869Z,15.38
2022-10-05T21:56:24.718Z,15.36
2022-10-05T21:58:51.986Z,15.47
2022-10-05T22:01:22.403Z,15.30
2022-10-05T22:03:49.766Z,15.10
2022-10-05T22:06:16.496Z,15.07
2022-10-05T22:08:43.260Z,15.15
2022-10-05T22:11:11.791Z,15.20
2022-10-05T22:13:43.078Z,15.05
2022-10-05T22:16:10.255Z,15.03
2022-10-05T22:18:37.242Z,14.96
2022-10-05T22:21:04.775Z,15.10
2022-10-05T22:23:33.679Z,14.86
2022-10-05T22:26:00.546Z,14.96
2022-10-05T22:28:27.788Z,14.92
2022-10-05T22:30:55.165Z,14.80
2022-10-05T22:33:21.916Z,15.05
2022-10-05T22:35:48.663Z,14.81
2022-10-05T22:38:15.703Z,15.02
2022-10-05T22:40:42.591Z,14.86
2022-10-05T22:43:09.311Z,14.79
2022-10-05T22:45:36.516Z,14.72
2022-10-05T22:48:03.871Z,14.75
2022-10-05T22:50:31.029Z,14.78
2022-10-05T22:52:58.049Z,14.65
2022-10-05T22:55:25.080Z,14.57
2022-10-05T22:57:51.840Z,14.63
2022-10-05T23:00:19.406Z,14.65
2022-10-05T23:02:49.118Z,14.68
2022-10-05T23:05:17.165Z,14.57
2022-10-05T23:07:44.787Z,14.57
2022-10-05T23:10:12.253Z,14.49
2022-10-05T23:12:39.095Z,14.60
2022-10-05T23:15:06.591Z,14.67
2022-10-05T23:17:35.755Z,14.51
2022-10-05T23:20:03.210Z,14.62
2022-10-05T23:22:30.476Z,14.63
2022-10-05T23:24:57.193Z,14.54
2022-10-05T23:27:23.989Z,14.69
2022-10-05T23:29:51.033Z,14.34
2022-10-05T23:32:17.775Z,14.47
2022-10-05T23:34:44.613Z,14.45
2022-10-05T23:37:11.765Z,14.60
2022-10-05T23:39:38.705Z,14.60
2022-10-05T23:42:05.979Z,14.37
2022-10-05T23:44:33.027Z,14.55
2022-10-05T23:46:59.883Z,14.58
2022-10-05T23:49:26.684Z,14.47
2022-10-05T23:51:53.832Z,14.52
2022-10-05T23:54:20.570Z,14.31
2022-10-05T23:56:47.270Z,14.45
2022-10-05T23:59:14.311Z,14.16
